Terminal Aerodrome Forecast
Issued by NWS Burlington, VT

Home | Current Version | Previous Version | Text Only | Print | Product List | Glossary On
Versions: 1 2 3 4 5 6 7 8 9 10 11 12 13 14 15
000
FTUS41 KBTV 022320
TAFBTV
TAF
KBTV 022320Z 0300/0324 31010G20KT P6SM -SHSN BKN040
     FM030200 33008KT P6SM SKC
     FM031200 18005KT P6SM SKC
     FM031700 17010G20KT P6SM OVC150=

USA.gov is the U.S. government's official web portal to all federal, state and local government web resources and services.